Terminal Aerodrome Forecast
Issued by NWS

Home | Current Version | Previous Version | Graphics & Text | Print | Product List | Glossary On
Versions: 1 2 3 4 5 6 7 8 9 10 11 12 13 14 15 16 17 18 19 20 21 22
866
FTUS43 KABR 271727
TAFMBG
TAF
KMBG 271727Z 2718/2818 01008KT P6SM OVC250
     FM272300 VRB06KT P6SM BKN150
     FM280400 05006KT P6SM VCSH BKN080 BKN200
     FM280800 03006KT P6SM SCT080 BKN120
     FM281500 36007KT P6SM VCTS BKN070CB BKN100=

USA.gov is the U.S. government's official web portal to all federal, state and local government web resources and services.